sensor_id;sensor_type;location;lat;lon;timestamp;pressure;altitude;pressure_sealevel;temperature;humidity
49843;BME280;55559;48.898;9.184;2023-02-18T00:02:07;99312.44;;;11.74;100.00
49843;BME280;55559;48.898;9.184;2023-02-18T00:04:35;99319.44;;;11.75;100.00
49843;BME280;55559;48.898;9.184;2023-02-18T00:07:02;99319.97;;;11.69;100.00
49843;BME280;55559;48.898;9.184;2023-02-18T00:09:28;99317.66;;;11.64;100.00
49843;BME280;55559;48.898;9.184;2023-02-18T00:11:55;99308.06;;;11.62;100.00
49843;BME280;55559;48.898;9.184;2023-02-18T00:14:22;99318.72;;;11.62;100.00
49843;BME280;55559;48.898;9.184;2023-02-18T00:16:49;99308.69;;;11.54;100.00
49843;BME280;55559;48.898;9.184;2023-02-18T00:19:17;99308.69;;;11.54;100.00
49843;BME280;55559;48.898;9.184;2023-02-18T00:21:46;99317.66;;;11.64;100.00
49843;BME280;55559;48.898;9.184;2023-02-18T00:24:13;99315.94;;;11.63;100.00
49843;BME280;55559;48.898;9.184;2023-02-18T00:26:41;99317.66;;;11.64;100.00
49843;BME280;55559;48.898;9.184;2023-02-18T00:29:08;99305.41;;;11.62;100.00
49843;BME280;55559;48.898;9.184;2023-02-18T00:31:36;99316.94;;;11.62;100.00
49843;BME280;55559;48.898;9.184;2023-02-18T00:34:04;99314.38;;;11.61;100.00
49843;BME280;55559;48.898;9.184;2023-02-18T00:36:32;99295.50;;;11.52;100.00
49843;BME280;55559;48.898;9.184;2023-02-18T00:39:04;99296.09;;;11.56;100.00
49843;BME280;55559;48.898;9.184;2023-02-18T00:41:33;99280.84;;;11.58;100.00
49843;BME280;55559;48.898;9.184;2023-02-18T00:44:00;99294.16;;;11.58;100.00
49843;BME280;55559;48.898;9.184;2023-02-18T00:46:27;99288.59;;;11.61;100.00
49843;BME280;55559;48.898;9.184;2023-02-18T00:48:54;99289.06;;;11.66;100.00
49843;BME280;55559;48.898;9.184;2023-02-18T00:51:22;99293.56;;;11.66;100.00
49843;BME280;55559;48.898;9.184;2023-02-18T00:53:50;99297.06;;;11.66;100.00
49843;BME280;55559;48.898;9.184;2023-02-18T00:56:19;99284.56;;;11.67;100.00
49843;BME280;55559;48.898;9.184;2023-02-18T00:58:47;99291.38;;;11.71;100.00
49843;BME280;55559;48.898;9.184;2023-02-18T01:01:14;99300.31;;;11.70;100.00
49843;BME280;55559;48.898;9.184;2023-02-18T01:03:41;99300.06;;;11.73;100.00
49843;BME280;55559;48.898;9.184;2023-02-18T01:06:08;99307.47;;;11.69;100.00
49843;BME280;55559;48.898;9.184;2023-02-18T01:08:36;99300.06;;;11.73;100.00
49843;BME280;55559;48.898;9.184;2023-02-18T01:11:06;99280.84;;;11.58;100.00
49843;BME280;55559;48.898;9.184;2023-02-18T01:13:37;99299.84;;;11.65;100.00
49843;BME280;55559;48.898;9.184;2023-02-18T01:16:05;99289.66;;;11.70;100.00
49843;BME280;55559;48.898;9.184;2023-02-18T01:18:33;99291.84;;;11.76;100.00
49843;BME280;55559;48.898;9.184;2023-02-18T01:20:59;99296.22;;;11.77;100.00
49843;BME280;55559;48.898;9.184;2023-02-18T01:23:26;99289.88;;;11.78;100.00
49843;BME280;55559;48.898;9.184;2023-02-18T01:25:53;99280.72;;;11.71;100.00
49843;BME280;55559;48.898;9.184;2023-02-18T01:28:22;99280.13;;;11.67;100.00
49843;BME280;55559;48.898;9.184;2023-02-18T01:30:52;99272.38;;;11.64;100.00
49843;BME280;55559;48.898;9.184;2023-02-18T01:33:19;99278.03;;;11.71;100.00
49843;BME280;55559;48.898;9.184;2023-02-18T01:35:46;99275.97;;;11.63;100.00
49843;BME280;55559;48.898;9.184;2023-02-18T01:38:13;99288.22;;;11.66;100.00
49843;BME280;55559;48.898;9.184;2023-02-18T01:40:44;99280.72;;;11.60;100.00
49843;BME280;55559;48.898;9.184;2023-02-18T01:43:12;99283.97;;;11.63;100.00
49843;BME280;55559;48.898;9.184;2023-02-18T01:46:03;99276.97;;;11.62;100.00
49843;BME280;55559;48.898;9.184;2023-02-18T01:48:33;99273.34;;;11.52;100.00
49843;BME280;55559;48.898;9.184;2023-02-18T01:51:05;99272.59;;;11.50;100.00
49843;BME280;55559;48.898;9.184;2023-02-18T01:53:39;99266.31;;;11.51;100.00
49843;BME280;55559;48.898;9.184;2023-02-18T01:56:11;99270.22;;;11.47;100.00
49843;BME280;55559;48.898;9.184;2023-02-18T01:58:40;99267.66;;;11.45;100.00
49843;BME280;55559;48.898;9.184;2023-02-18T02:01:09;99269.34;;;11.46;100.00
49843;BME280;55559;48.898;9.184;2023-02-18T02:03:36;99266.44;;;11.38;100.00
49843;BME280;55559;48.898;9.184;2023-02-18T02:06:11;99268.28;;;11.38;100.00
49843;BME280;55559;48.898;9.184;2023-02-18T02:08:39;99269.97;;;11.39;100.00
49843;BME280;55559;48.898;9.184;2023-02-18T02:11:20;99268.88;;;11.41;100.00
49843;BME280;55559;48.898;9.184;2023-02-18T02:14:05;99264.78;;;11.37;100.00
49843;BME280;55559;48.898;9.184;2023-02-18T02:16:39;99268.88;;;11.41;100.00
49843;BME280;55559;48.898;9.184;2023-02-18T02:19:26;99263.19;;;11.46;100.00
49843;BME280;55559;48.898;9.184;2023-02-18T02:22:21;99258.97;;;11.32;100.00
49843;BME280;55559;48.898;9.184;2023-02-18T02:25:11;99245.78;;;11.42;100.00
49843;BME280;55559;48.898;9.184;2023-02-18T02:31:25;99252.16;;;11.50;100.00
49843;BME280;55559;48.898;9.184;2023-02-18T02:34:22;99234.25;;;11.52;100.00
49843;BME280;55559;48.898;9.184;2023-02-18T02:36:58;99233.47;;;11.62;100.00
49843;BME280;55559;48.898;9.184;2023-02-18T02:39:34;99230.44;;;11.66;100.00
49843;BME280;55559;48.898;9.184;2023-02-18T02:42:09;99230.09;;;11.60;100.00
49843;BME280;55559;48.898;9.184;2023-02-18T02:44:44;99237.13;;;11.61;100.00
49843;BME280;55559;48.898;9.184;2023-02-18T02:47:19;99236.41;;;11.59;100.00
49843;BME280;55559;48.898;9.184;2023-02-18T02:49:52;99230.22;;;11.58;100.00
49843;BME280;55559;48.898;9.184;2023-02-18T02:52:27;99236.53;;;11.57;100.00
49843;BME280;55559;48.898;9.184;2023-02-18T02:54:56;99226.72;;;11.58;100.00
49843;BME280;55559;48.898;9.184;2023-02-18T02:57:46;99222.59;;;11.65;100.00
49843;BME280;55559;48.898;9.184;2023-02-18T03:00:21;99226.25;;;11.64;100.00
49843;BME280;55559;48.898;9.184;2023-02-18T03:05:54;99217.72;;;11.70;100.00
49843;BME280;55559;48.898;9.184;2023-02-18T03:08:37;99217.47;;;11.73;100.00
49843;BME280;55559;48.898;9.184;2023-02-18T03:11:07;99209.00;;;11.79;100.00
49843;BME280;55559;48.898;9.184;2023-02-18T03:13:48;99205.88;;;11.74;100.00
49843;BME280;55559;48.898;9.184;2023-02-18T03:16:25;99200.41;;;11.76;100.00
49843;BME280;55559;48.898;9.184;2023-02-18T03:18:59;99197.97;;;11.84;100.00
49843;BME280;55559;48.898;9.184;2023-02-18T03:21:32;99191.66;;;11.85;100.00
49843;BME280;55559;48.898;9.184;2023-02-18T03:24:02;99189.88;;;11.74;100.00
49843;BME280;55559;48.898;9.184;2023-02-18T03:26:33;99192.53;;;11.74;100.00
49843;BME280;55559;48.898;9.184;2023-02-18T03:29:04;99187.09;;;11.76;100.00
49843;BME280;55559;48.898;9.184;2023-02-18T03:31:35;99193.72;;;11.81;100.00
49843;BME280;55559;48.898;9.184;2023-02-18T03:34:06;99182.00;;;11.72;100.00
49843;BME280;55559;48.898;9.184;2023-02-18T03:36:38;99188.66;;;11.67;100.00
49843;BME280;55559;48.898;9.184;2023-02-18T03:39:08;99195.69;;;11.68;100.00
49843;BME280;55559;48.898;9.184;2023-02-18T03:41:36;99183.50;;;11.65;100.00
49843;BME280;55559;48.898;9.184;2023-02-18T03:44:05;99188.19;;;11.62;100.00
49843;BME280;55559;48.898;9.184;2023-02-18T03:46:33;99187.25;;;11.63;100.00
49843;BME280;55559;48.898;9.184;2023-02-18T03:49:00;99189.69;;;11.54;100.00
49843;BME280;55559;48.898;9.184;2023-02-18T03:51:27;99181.59;;;11.45;100.00
49843;BME280;55559;48.898;9.184;2023-02-18T03:53:55;99194.66;;;11.48;100.00
49843;BME280;55559;48.898;9.184;2023-02-18T03:56:22;99188.25;;;11.39;100.00
49843;BME280;55559;48.898;9.184;2023-02-18T03:58:49;99181.75;;;11.32;100.00
49843;BME280;55559;48.898;9.184;2023-02-18T04:01:15;99189.25;;;11.27;100.00
49843;BME280;55559;48.898;9.184;2023-02-18T04:03:42;99191.44;;;11.22;100.00
49843;BME280;55559;48.898;9.184;2023-02-18T04:06:09;99176.78;;;11.27;100.00
49843;BME280;55559;48.898;9.184;2023-02-18T04:08:35;99186.59;;;11.27;100.00
49843;BME280;55559;48.898;9.184;2023-02-18T04:11:05;99183.47;;;11.22;100.00
49843;BME280;55559;48.898;9.184;2023-02-18T04:13:31;99184.28;;;11.22;100.00
49843;BME280;55559;48.898;9.184;2023-02-18T04:15:58;99176.31;;;11.11;100.00
49843;BME280;55559;48.898;9.184;2023-02-18T04:18:25;99173.78;;;11.09;100.00
49843;BME280;55559;48.898;9.184;2023-02-18T04:20:52;99175.59;;;10.97;100.00
49843;BME280;55559;48.898;9.184;2023-02-18T04:23:18;99182.03;;;10.95;100.00
49843;BME280;55559;48.898;9.184;2023-02-18T04:25:45;99176.94;;;10.92;100.00
49843;BME280;55559;48.898;9.184;2023-02-18T04:28:14;99178.66;;;10.93;100.00
49843;BME280;55559;48.898;9.184;2023-02-18T04:30:42;99182.38;;;10.90;100.00
49843;BME280;55559;48.898;9.184;2023-02-18T04:33:08;99182.97;;;10.94;100.00
49843;BME280;55559;48.898;9.184;2023-02-18T04:35:35;99191.22;;;11.02;100.00
49843;BME280;55559;48.898;9.184;2023-02-18T04:38:05;99192.03;;;11.03;100.00
49843;BME280;55559;48.898;9.184;2023-02-18T04:40:32;99193.00;;;11.13;100.00
49843;BME280;55559;48.898;9.184;2023-02-18T04:42:59;99190.22;;;11.14;100.00
49843;BME280;55559;48.898;9.184;2023-02-18T04:45:27;99190.34;;;11.24;100.00
49843;BME280;55559;48.898;9.184;2023-02-18T04:47:54;99194.72;;;11.25;100.00
49843;BME280;55559;48.898;9.184;2023-02-18T04:50:21;99189.38;;;11.25;100.00
49843;BME280;55559;48.898;9.184;2023-02-18T04:52:48;99189.97;;;11.17;100.00
49843;BME280;55559;48.898;9.184;2023-02-18T04:55:15;99202.34;;;11.19;100.00
49843;BME280;55559;48.898;9.184;2023-02-18T04:57:42;99198.84;;;11.07;100.00
49843;BME280;55559;48.898;9.184;2023-02-18T05:00:13;99194.47;;;10.94;100.00
49843;BME280;55559;48.898;9.184;2023-02-18T05:02:42;99198.94;;;10.83;100.00
49843;BME280;55559;48.898;9.184;2023-02-18T05:05:09;99198.22;;;10.80;100.00
49843;BME280;55559;48.898;9.184;2023-02-18T05:07:36;99202.91;;;10.66;100.00
49843;BME280;55559;48.898;9.184;2023-02-18T05:10:03;99200.50;;;10.63;100.00
49843;BME280;55559;48.898;9.184;2023-02-18T05:12:30;99198.44;;;10.55;100.00
49843;BME280;55559;48.898;9.184;2023-02-18T05:14:57;99209.31;;;10.52;100.00
49843;BME280;55559;48.898;9.184;2023-02-18T05:17:24;99203.50;;;10.47;100.00
49843;BME280;55559;48.898;9.184;2023-02-18T05:19:53;99195.63;;;10.45;100.00
49843;BME280;55559;48.898;9.184;2023-02-18T05:22:20;99192.25;;;10.43;100.00
49843;BME280;55559;48.898;9.184;2023-02-18T05:24:47;99191.88;;;10.36;100.00
49843;BME280;55559;48.898;9.184;2023-02-18T05:27:15;99186.66;;;10.35;100.00
49843;BME280;55559;48.898;9.184;2023-02-18T05:29:42;99199.44;;;10.30;100.00
49843;BME280;55559;48.898;9.184;2023-02-18T05:32:10;99195.06;;;10.17;100.00
49843;BME280;55559;48.898;9.184;2023-02-18T05:34:37;99191.03;;;10.12;100.00
49843;BME280;55559;48.898;9.184;2023-02-18T05:37:06;99206.94;;;10.00;100.00
49843;BME280;55559;48.898;9.184;2023-02-18T05:39:34;99194.22;;;9.93;100.00
49843;BME280;55559;48.898;9.184;2023-02-18T05:42:01;99189.25;;;9.88;100.00
49843;BME280;55559;48.898;9.184;2023-02-18T05:44:29;99186.84;;;9.85;100.00
49843;BME280;55559;48.898;9.184;2023-02-18T05:46:56;99194.72;;;9.86;100.00
49843;BME280;55559;48.898;9.184;2023-02-18T05:49:24;99196.97;;;9.80;100.00
49843;BME280;55559;48.898;9.184;2023-02-18T05:51:52;99198.25;;;9.74;100.00
49843;BME280;55559;48.898;9.184;2023-02-18T05:54:21;99199.44;;;9.70;100.00
49843;BME280;55559;48.898;9.184;2023-02-18T05:56:48;99199.78;;;9.65;100.00
49843;BME280;55559;48.898;9.184;2023-02-18T05:59:16;99183.34;;;9.60;100.00
49843;BME280;55559;48.898;9.184;2023-02-18T06:01:44;99178.25;;;9.57;100.00
49843;BME280;55559;48.898;9.184;2023-02-18T06:04:12;99188.03;;;9.57;100.00
49843;BME280;55559;48.898;9.184;2023-02-18T06:06:40;99182.41;;;9.61;100.00
49843;BME280;55559;48.898;9.184;2023-02-18T06:09:08;99189.16;;;9.65;100.00
49843;BME280;55559;48.898;9.184;2023-02-18T06:11:37;99200.63;;;9.66;100.00
49843;BME280;55559;48.898;9.184;2023-02-18T06:14:05;99199.78;;;9.65;100.00
49843;BME280;55559;48.898;9.184;2023-02-18T06:16:32;99205.72;;;9.69;100.00
49843;BME280;55559;48.898;9.184;2023-02-18T06:19:00;99210.91;;;9.71;100.00
49843;BME280;55559;48.898;9.184;2023-02-18T06:21:27;99199.22;;;9.73;100.00
49843;BME280;55559;48.898;9.184;2023-02-18T06:23:55;99193.66;;;9.76;100.00
49843;BME280;55559;48.898;9.184;2023-02-18T06:26:23;99187.63;;;9.74;100.00
49843;BME280;55559;48.898;9.184;2023-02-18T06:28:52;99187.50;;;9.76;100.00
49843;BME280;55559;48.898;9.184;2023-02-18T06:31:19;99184.41;;;9.82;100.00
49843;BME280;55559;48.898;9.184;2023-02-18T06:33:47;99189.41;;;9.86;100.00
49843;BME280;55559;48.898;9.184;2023-02-18T06:36:14;99187.84;;;9.95;100.00
49843;BME280;55559;48.898;9.184;2023-02-18T06:38:43;99192.69;;;10.01;100.00
49843;BME280;55559;48.898;9.184;2023-02-18T06:41:11;99187.25;;;10.03;100.00
49843;BME280;55559;48.898;9.184;2023-02-18T06:43:39;99192.84;;;10.11;100.00
49843;BME280;55559;48.898;9.184;2023-02-18T06:46:08;99183.69;;;10.15;100.00
49843;BME280;55559;48.898;9.184;2023-02-18T06:48:36;99195.31;;;10.26;100.00
49843;BME280;55559;48.898;9.184;2023-02-18T06:51:05;99189.91;;;10.27;100.00
49843;BME280;55559;48.898;9.184;2023-02-18T06:53:32;99205.50;;;10.32;100.00
49843;BME280;55559;48.898;9.184;2023-02-18T06:56:00;99191.03;;;10.36;100.00
49843;BME280;55559;48.898;9.184;2023-02-18T06:58:27;99194.78;;;10.45;100.00
49843;BME280;55559;48.898;9.184;2023-02-18T07:00:54;99203.25;;;10.50;100.00
49843;BME280;55559;48.898;9.184;2023-02-18T07:03:23;99192.16;;;10.56;100.00
49843;BME280;55559;48.898;9.184;2023-02-18T07:05:51;99195.53;;;10.58;100.00
49843;BME280;55559;48.898;9.184;2023-02-18T07:08:19;99186.72;;;10.57;100.00
49843;BME280;55559;48.898;9.184;2023-02-18T07:10:46;99179.47;;;10.59;100.00
49843;BME280;55559;48.898;9.184;2023-02-18T07:13:14;99190.34;;;10.68;100.00
49843;BME280;55559;48.898;9.184;2023-02-18T07:15:41;99175.72;;;10.73;100.00
49843;BME280;55559;48.898;9.184;2023-02-18T07:18:09;99190.72;;;10.74;100.00
49843;BME280;55559;48.898;9.184;2023-02-18T07:20:38;99178.16;;;10.76;100.00
49843;BME280;55559;48.898;9.184;2023-02-18T07:23:05;99176.94;;;10.80;100.00
49843;BME280;55559;48.898;9.184;2023-02-18T07:25:33;99179.47;;;10.82;100.00
49843;BME280;55559;48.898;9.184;2023-02-18T07:28:00;99177.66;;;10.83;100.00
49843;BME280;55559;48.898;9.184;2023-02-18T07:30:27;99179.47;;;10.82;100.00
49843;BME280;55559;48.898;9.184;2023-02-18T07:32:55;99167.38;;;10.89;100.00
49843;BME280;55559;48.898;9.184;2023-02-18T07:35:22;99170.50;;;10.94;100.00
49843;BME280;55559;48.898;9.184;2023-02-18T07:37:51;99155.53;;;11.05;100.00
49843;BME280;55559;48.898;9.184;2023-02-18T07:40:20;99154.44;;;11.07;100.00
49843;BME280;55559;48.898;9.184;2023-02-18T07:42:48;99151.03;;;11.16;100.00
49843;BME280;55559;48.898;9.184;2023-02-18T07:45:15;99142.78;;;11.20;100.00
49843;BME280;55559;48.898;9.184;2023-02-18T07:47:43;99143.66;;;11.20;100.00
49843;BME280;55559;48.898;9.184;2023-02-18T07:50:11;99157.06;;;11.30;100.00
49843;BME280;55559;48.898;9.184;2023-02-18T07:52:38;99143.25;;;11.36;100.00
49843;BME280;55559;48.898;9.184;2023-02-18T07:55:08;99149.75;;;11.43;100.00
49843;BME280;55559;48.898;9.184;2023-02-18T07:57:35;99147.09;;;11.43;100.00
49843;BME280;55559;48.898;9.184;2023-02-18T08:00:22;99147.84;;;11.45;100.00
49843;BME280;55559;48.898;9.184;2023-02-18T08:02:50;99153.50;;;11.52;100.00
49843;BME280;55559;48.898;9.184;2023-02-18T08:05:17;99156.28;;;11.50;100.00
49843;BME280;55559;48.898;9.184;2023-02-18T08:07:45;99152.38;;;11.54;100.00
49843;BME280;55559;48.898;9.184;2023-02-18T08:10:14;99156.34;;;11.60;100.00
49843;BME280;55559;48.898;9.184;2023-02-18T08:12:41;99151.19;;;11.59;100.00
49843;BME280;55559;48.898;9.184;2023-02-18T08:15:09;99158.56;;;11.55;100.00
49843;BME280;55559;48.898;9.184;2023-02-18T08:17:36;99166.75;;;11.63;100.00
49843;BME280;55559;48.898;9.184;2023-02-18T08:20:05;99158.53;;;11.66;100.00
49843;BME280;55559;48.898;9.184;2023-02-18T08:22:32;99144.97;;;11.69;100.00
49843;BME280;55559;48.898;9.184;2023-02-18T08:25:00;99162.38;;;11.73;100.00
49843;BME280;55559;48.898;9.184;2023-02-18T08:27:30;99151.66;;;11.85;100.00
49843;BME280;55559;48.898;9.184;2023-02-18T08:29:57;99143.75;;;12.06;100.00
49843;BME280;55559;48.898;9.184;2023-02-18T08:32:26;99138.00;;;12.10;100.00
49843;BME280;55559;48.898;9.184;2023-02-18T08:34:54;99145.94;;;12.22;100.00
49843;BME280;55559;48.898;9.184;2023-02-18T08:37:21;99130.53;;;12.25;100.00
49843;BME280;55559;48.898;9.184;2023-02-18T08:39:49;99138.13;;;12.30;100.00
49843;BME280;55559;48.898;9.184;2023-02-18T08:42:17;99142.66;;;12.39;100.00
49843;BME280;55559;48.898;9.184;2023-02-18T08:44:46;99134.03;;;12.47;100.00
49843;BME280;55559;48.898;9.184;2023-02-18T08:47:13;99134.72;;;12.49;100.00
49843;BME280;55559;48.898;9.184;2023-02-18T08:49:41;99137.00;;;12.54;100.00
49843;BME280;55559;48.898;9.184;2023-02-18T08:52:09;99121.84;;;12.54;100.00
49843;BME280;55559;48.898;9.184;2023-02-18T08:54:36;99131.47;;;12.67;100.00
49843;BME280;55559;48.898;9.184;2023-02-18T08:57:03;99130.59;;;12.66;100.00
49843;BME280;55559;48.898;9.184;2023-02-18T08:59:31;99125.31;;;12.76;100.00
49843;BME280;55559;48.898;9.184;2023-02-18T09:02:00;99134.19;;;12.86;100.00
49843;BME280;55559;48.898;9.184;2023-02-18T09:04:28;99124.34;;;12.77;100.00
49843;BME280;55559;48.898;9.184;2023-02-18T09:06:55;99126.72;;;12.80;100.00
49843;BME280;55559;48.898;9.184;2023-02-18T09:09:23;99130.00;;;12.83;100.00
49843;BME280;55559;48.898;9.184;2023-02-18T09:11:51;99128.34;;;12.92;100.00
49843;BME280;55559;48.898;9.184;2023-02-18T09:14:18;99127.03;;;12.87;100.00
49843;BME280;55559;48.898;9.184;2023-02-18T09:16:46;99117.09;;;12.98;100.00
49843;BME280;55559;48.898;9.184;2023-02-18T09:19:15;99120.50;;;13.00;100.00
49843;BME280;55559;48.898;9.184;2023-02-18T09:21:42;99121.50;;;13.09;100.00
49843;BME280;55559;48.898;9.184;2023-02-18T09:24:10;99108.72;;;13.13;100.00
49843;BME280;55559;48.898;9.184;2023-02-18T09:26:37;99113.91;;;13.14;100.00
49843;BME280;55559;48.898;9.184;2023-02-18T09:29:05;99098.59;;;13.16;100.00
49843;BME280;55559;48.898;9.184;2023-02-18T09:31:33;99114.22;;;13.21;100.00
49843;BME280;55559;48.898;9.184;2023-02-18T09:34:01;99108.91;;;13.31;100.00
49843;BME280;55559;48.898;9.184;2023-02-18T09:36:31;99113.72;;;13.47;100.00
49843;BME280;55559;48.898;9.184;2023-02-18T09:38:59;99095.16;;;13.65;100.00
49843;BME280;55559;48.898;9.184;2023-02-18T09:41:31;99100.78;;;13.52;100.00
49843;BME280;55559;48.898;9.184;2023-02-18T09:44:03;99095.44;;;13.62;100.00
49843;BME280;55559;48.898;9.184;2023-02-18T09:46:34;99092.50;;;13.55;100.00
49843;BME280;55559;48.898;9.184;2023-02-18T09:49:03;99096.97;;;13.64;100.00
49843;BME280;55559;48.898;9.184;2023-02-18T09:51:34;99094.47;;;13.53;100.00
49843;BME280;55559;48.898;9.184;2023-02-18T09:54:01;99091.63;;;13.64;100.00
49843;BME280;55559;48.898;9.184;2023-02-18T09:56:31;99100.22;;;13.58;100.00
49843;BME280;55559;48.898;9.184;2023-02-18T09:59:03;99096.16;;;13.64;100.00
49843;BME280;55559;48.898;9.184;2023-02-18T10:01:33;99095.72;;;13.58;100.00
49843;BME280;55559;48.898;9.184;2023-02-18T10:04:04;99099.38;;;13.67;100.00
49843;BME280;55559;48.898;9.184;2023-02-18T10:06:35;99109.22;;;13.67;100.00
49843;BME280;55559;48.898;9.184;2023-02-18T10:09:05;99111.63;;;13.80;100.00
49843;BME280;55559;48.898;9.184;2023-02-18T10:11:41;99110.63;;;13.81;100.00
49843;BME280;55559;48.898;9.184;2023-02-18T10:14:10;99107.94;;;13.81;100.00
49843;BME280;55559;48.898;9.184;2023-02-18T10:16:38;99104.16;;;13.83;100.00
49843;BME280;55559;48.898;9.184;2023-02-18T10:19:16;99111.59;;;13.89;100.00
49843;BME280;55559;48.898;9.184;2023-02-18T10:21:48;99111.75;;;13.98;100.00
49843;BME280;55559;48.898;9.184;2023-02-18T10:24:25;99117.94;;;13.98;100.00
49843;BME280;55559;48.898;9.184;2023-02-18T10:26:54;99127.22;;;13.84;100.00
49843;BME280;55559;48.898;9.184;2023-02-18T10:29:24;99118.94;;;13.87;100.00
49843;BME280;55559;48.898;9.184;2023-02-18T10:31:55;99123.16;;;13.90;100.00
49843;BME280;55559;48.898;9.184;2023-02-18T10:34:33;99103.72;;;13.98;100.00
49843;BME280;55559;48.898;9.184;2023-02-18T10:37:19;99119.47;;;13.91;100.00
49843;BME280;55559;48.898;9.184;2023-02-18T10:40:01;99102.88;;;13.77;100.00
49843;BME280;55559;48.898;9.184;2023-02-18T10:42:37;99109.38;;;13.85;100.00
49843;BME280;55559;48.898;9.184;2023-02-18T10:45:16;99099.66;;;13.84;100.00
49843;BME280;55559;48.898;9.184;2023-02-18T10:47:53;99095.28;;;13.92;100.00
49843;BME280;55559;48.898;9.184;2023-02-18T10:50:28;99092.59;;;14.12;100.00
49843;BME280;55559;48.898;9.184;2023-02-18T10:53:01;99092.41;;;14.23;100.00
49843;BME280;55559;48.898;9.184;2023-02-18T10:55:37;99089.13;;;14.39;100.00
49843;BME280;55559;48.898;9.184;2023-02-18T10:58:25;99094.31;;;14.50;100.00
49843;BME280;55559;48.898;9.184;2023-02-18T11:00:53;99098.00;;;14.40;100.00
49843;BME280;55559;48.898;9.184;2023-02-18T11:03:21;99090.63;;;14.51;100.00
49843;BME280;55559;48.898;9.184;2023-02-18T11:05:51;99082.50;;;14.43;100.00
49843;BME280;55559;48.898;9.184;2023-02-18T11:08:23;99081.94;;;14.40;100.00
49843;BME280;55559;48.898;9.184;2023-02-18T11:10:52;99076.13;;;14.64;100.00
49843;BME280;55559;48.898;9.184;2023-02-18T11:13:25;99088.72;;;14.44;100.00
49843;BME280;55559;48.898;9.184;2023-02-18T11:15:58;99079.94;;;14.51;98.04
49843;BME280;55559;48.898;9.184;2023-02-18T11:18:39;99082.19;;;14.56;98.17
49843;BME280;55559;48.898;9.184;2023-02-18T11:21:21;99076.75;;;14.38;96.25
49843;BME280;55559;48.898;9.184;2023-02-18T11:23:54;99080.53;;;14.45;97.20
49843;BME280;55559;48.898;9.184;2023-02-18T11:26:26;99073.09;;;14.29;99.03
49843;BME280;55559;48.898;9.184;2023-02-18T11:28:58;99060.47;;;14.22;100.00
49843;BME280;55559;48.898;9.184;2023-02-18T11:31:38;99067.22;;;14.26;100.00
49843;BME280;55559;48.898;9.184;2023-02-18T11:34:14;99066.38;;;14.25;100.00
49843;BME280;55559;48.898;9.184;2023-02-18T11:36:43;99074.66;;;14.32;100.00
49843;BME280;55559;48.898;9.184;2023-02-18T11:39:19;99072.44;;;14.18;100.00
49843;BME280;55559;48.898;9.184;2023-02-18T11:41:52;99072.56;;;14.26;100.00
49843;BME280;55559;48.898;9.184;2023-02-18T11:44:22;99061.72;;;14.27;100.00
49843;BME280;55559;48.898;9.184;2023-02-18T11:46:58;99057.53;;;14.15;100.00
49843;BME280;55559;48.898;9.184;2023-02-18T11:49:26;99060.78;;;14.09;100.00
49843;BME280;55559;48.898;9.184;2023-02-18T11:52:03;99067.28;;;13.97;100.00
49843;BME280;55559;48.898;9.184;2023-02-18T11:54:31;99062.22;;;14.03;100.00
49843;BME280;55559;48.898;9.184;2023-02-18T11:57:02;99056.50;;;14.26;100.00
49843;BME280;55559;48.898;9.184;2023-02-18T11:59:34;99070.19;;;14.13;100.00
49843;BME280;55559;48.898;9.184;2023-02-18T12:02:17;99051.03;;;14.18;100.00
49843;BME280;55559;48.898;9.184;2023-02-18T12:04:51;99038.97;;;14.13;100.00
49843;BME280;55559;48.898;9.184;2023-02-18T12:07:24;99057.84;;;14.02;100.00
49843;BME280;55559;48.898;9.184;2023-02-18T12:09:57;99066.28;;;13.88;100.00
49843;BME280;55559;48.898;9.184;2023-02-18T12:12:26;99047.16;;;13.83;100.00
49843;BME280;55559;48.898;9.184;2023-02-18T12:14:55;99042.63;;;14.03;100.00
49843;BME280;55559;48.898;9.184;2023-02-18T12:17:44;99046.66;;;14.26;100.00
49843;BME280;55559;48.898;9.184;2023-02-18T12:20:41;99056.94;;;14.21;100.00
49843;BME280;55559;48.898;9.184;2023-02-18T12:23:19;99052.88;;;14.17;100.00
49843;BME280;55559;48.898;9.184;2023-02-18T12:25:57;99045.25;;;14.22;100.00
49843;BME280;55559;48.898;9.184;2023-02-18T12:28:41;99051.09;;;13.98;100.00
49843;BME280;55559;48.898;9.184;2023-02-18T12:31:25;99041.38;;;13.97;100.00
49843;BME280;55559;48.898;9.184;2023-02-18T12:34:13;99047.88;;;13.85;100.00
49843;BME280;55559;48.898;9.184;2023-02-18T12:36:55;99040.16;;;13.82;100.00
49843;BME280;55559;48.898;9.184;2023-02-18T12:39:34;99032.53;;;13.87;100.00
49843;BME280;55559;48.898;9.184;2023-02-18T12:42:17;99044.50;;;13.83;100.00
49843;BME280;55559;48.898;9.184;2023-02-18T12:45:03;99033.53;;;13.76;100.00
49843;BME280;55559;48.898;9.184;2023-02-18T12:47:45;99034.41;;;13.76;100.00
49843;BME280;55559;48.898;9.184;2023-02-18T12:50:27;99026.38;;;13.76;100.00
49843;BME280;55559;48.898;9.184;2023-02-18T12:53:11;99028.63;;;13.71;100.00
49843;BME280;55559;48.898;9.184;2023-02-18T12:56:00;99023.97;;;13.73;100.00
49843;BME280;55559;48.898;9.184;2023-02-18T12:58:43;99021.44;;;13.72;100.00
49843;BME280;55559;48.898;9.184;2023-02-18T13:01:29;99025.50;;;13.86;100.00
49843;BME280;55559;48.898;9.184;2023-02-18T13:04:24;99015.50;;;13.88;100.00
49843;BME280;55559;48.898;9.184;2023-02-18T13:10:17;99021.44;;;13.72;100.00
49843;BME280;55559;48.898;9.184;2023-02-18T13:12:51;99017.34;;;13.87;100.00
49843;BME280;55559;48.898;9.184;2023-02-18T13:15:30;99017.94;;;13.71;100.00
49843;BME280;55559;48.898;9.184;2023-02-18T13:18:05;99013.56;;;13.70;100.00
49843;BME280;55559;48.898;9.184;2023-02-18T13:20:38;98992.34;;;13.69;100.00